Aeroporto :
LOGIN :

Iscrizione | Disclaimer

   EN    FR    IT 

 










Sommario :    VFR   VFR Marginale   IFR   IFR Intensivo   IFR Molto Intensivo
Visibilità : 
Base nubi : 
>= 8 km
>= 3000ft
5 / 8 km
1000 / 3000 ft
1500m / 5 km
500 / 1000 ft
800 / 1500m
200 / 500 ft
< 800m
< 200 ft
Simboli :   Temporali  Nebbia  Neve Forte  Precipitazioni Forti  Vento > 20 kt
SIGMETs :   Varie  Temporali  Ghiacco  Turbolenza  Onda orograficha  Ceneri Vulcaniche






- Altitudine del aeroporto : 53 ft
- Codice IATA : HAM


EDDH - Hamburg

ULTIMO METAR :
  • 270050Z VRB01KT 9999 2400NW BCFG NSC 09/08 Q1034 NOSIG

METARs OBSOLETI :
  • 270020Z VRB01KT 9999 2400NW BCFG NSC 08/08 Q1034 NOSIG
  • 262350Z 32003KT CAVOK 09/08 Q1034 NOSIG
  • 262320Z VRB01KT CAVOK 10/10 Q1034 NOSIG
  • 262250Z 04001KT CAVOK 11/10 Q1034 NOSIG
  • 262220Z VRB01KT CAVOK 11/10 Q1034 NOSIG

TAF TAF EDDH
Valido dal 27 a 00 ore il 28 a 06 ore UTC


262300Z 2700/2806 VRB03KT 9999 FEW030
TEMPO 2700/2705 3000 BCFG
PROB40
TEMPO 2702/2704 1200
BECMG 2706/2708 30005KT
BECMG 2710/2712 33010KT
BECMG 2719/2721 32004KT



MetMap, La meteo Aeronautica in un colpo d'occhio ! - Copyright ORBIFLY Dicembre 2007 - Disclaimer

ORBIFLY MET'MAP TEAM :

Programmazione e sviluppo : Alexandra Zaïnal
Concezione : Baudouin d'Aumeries
Aiuto per la programmazione : Marc-Olivier Méhu
Supporto tecnico e logistico : Manuel Goepfert
Aiuto per la traduzione : Arnaldo La Scala

Contatto : metmap@orbifly.com




FONTI E CREDITI :

   NOAA